createdAt,value
2019-05-15T00:01:30.388Z,8.46
2019-05-15T00:03:58.490Z,8.48
2019-05-15T00:06:24.369Z,8.36
2019-05-15T00:08:50.421Z,8.33
2019-05-15T00:11:19.024Z,8.26
2019-05-15T00:13:44.450Z,8.23
2019-05-15T00:16:10.440Z,8.20
2019-05-15T00:18:38.791Z,8.20
2019-05-15T00:21:04.363Z,8.17
2019-05-15T00:23:30.340Z,8.07
2019-05-15T00:25:58.526Z,8.08
2019-05-15T00:28:24.335Z,8.11
2019-05-15T00:30:50.333Z,8.03
2019-05-15T00:33:19.134Z,7.91
2019-05-15T00:35:44.482Z,7.98
2019-05-15T00:38:10.461Z,7.88
2019-05-15T00:40:39.163Z,7.88
2019-05-15T00:43:04.388Z,8.01
2019-05-15T00:45:30.404Z,7.76
2019-05-15T00:47:57.901Z,7.83
2019-05-15T00:50:24.056Z,7.75
2019-05-15T00:52:50.033Z,7.73
2019-05-15T00:55:18.876Z,7.75
2019-05-15T00:57:44.745Z,7.69
2019-05-15T01:00:11.145Z,7.64
2019-05-15T01:02:38.833Z,7.60
2019-05-15T01:05:08.003Z,7.68
2019-05-15T01:07:33.633Z,7.60
2019-05-15T01:09:59.650Z,7.60
2019-05-15T01:12:25.676Z,7.61
2019-05-15T01:14:51.703Z,7.62
2019-05-15T01:17:18.448Z,7.64
2019-05-15T01:19:44.783Z,7.56
2019-05-15T01:22:10.776Z,7.49
2019-05-15T01:24:38.857Z,7.45
2019-05-15T01:27:04.972Z,7.26
2019-05-15T01:29:40.602Z,7.26
2019-05-15T01:31:59.353Z,7.32
2019-05-15T01:34:25.481Z,7.38
2019-05-15T01:36:51.576Z,7.29
2019-05-15T01:39:18.498Z,7.31
2019-05-15T01:41:44.730Z,7.33
2019-05-15T01:44:11.205Z,7.24
2019-05-15T01:46:39.264Z,7.35
2019-05-15T01:49:05.290Z,7.31
2019-05-15T01:51:31.314Z,7.27
2019-05-15T01:53:58.378Z,7.27
2019-05-15T01:56:24.652Z,7.25
2019-05-15T01:58:50.980Z,7.29
2019-05-15T02:01:19.167Z,7.31
2019-05-15T02:03:45.534Z,7.33
2019-05-15T02:06:11.536Z,7.33
2019-05-15T02:08:39.335Z,7.34
2019-05-15T02:11:05.536Z,7.40
2019-05-15T02:13:35.055Z,7.57
2019-05-15T02:16:01.020Z,7.46
2019-05-15T02:18:28.537Z,7.39
2019-05-15T02:20:55.257Z,7.31
2019-05-15T02:23:21.355Z,7.32
2019-05-15T02:25:48.123Z,7.38
2019-05-15T02:28:14.288Z,7.41
2019-05-15T02:30:41.093Z,7.45
2019-05-15T02:33:10.603Z,7.42
2019-05-15T02:35:38.889Z,7.42
2019-05-15T02:38:04.168Z,7.40
2019-05-15T02:40:30.260Z,7.38
2019-05-15T02:42:58.976Z,7.28
2019-05-15T02:45:29.836Z,7.28
2019-05-15T02:47:55.186Z,7.28
2019-05-15T02:50:21.668Z,7.28
2019-05-15T02:52:49.683Z,7.24
2019-05-15T02:55:15.602Z,7.27
2019-05-15T02:57:41.612Z,7.20
2019-05-15T03:00:10.934Z,7.14
2019-05-15T03:02:36.613Z,7.17
2019-05-15T03:05:09.265Z,7.22
2019-05-15T03:07:34.640Z,7.17
2019-05-15T03:10:01.037Z,7.18
2019-05-15T03:12:28.971Z,7.24
2019-05-15T03:14:54.931Z,7.26
2019-05-15T03:17:20.937Z,7.37
2019-05-15T03:19:49.502Z,7.30
2019-05-15T03:22:14.841Z,7.28
2019-05-15T03:24:41.151Z,7.26
2019-05-15T03:27:09.380Z,7.26
2019-05-15T03:29:35.511Z,7.27
2019-05-15T03:32:18.198Z,7.27
2019-05-15T03:34:38.691Z,7.25
2019-05-15T03:37:04.107Z,7.25
2019-05-15T03:39:30.453Z,7.28
2019-05-15T03:41:58.755Z,7.19
2019-05-15T03:44:24.537Z,8.01
2019-05-15T03:46:50.741Z,8.77
2019-05-15T03:49:19.696Z,8.09
2019-05-15T03:51:45.954Z,7.76
2019-05-15T03:54:12.278Z,7.65
2019-05-15T03:56:39.352Z,7.46
2019-05-15T03:59:09.051Z,7.52
2019-05-15T04:01:39.787Z,7.62
2019-05-15T04:04:02.308Z,7.61
2019-05-15T04:06:29.843Z,7.60
2019-05-15T04:08:58.645Z,7.70
2019-05-15T04:11:24.539Z,7.72
2019-05-15T04:13:50.681Z,7.73
2019-05-15T04:16:19.062Z,7.89
2019-05-15T04:18:45.240Z,7.89
2019-05-15T04:21:11.707Z,7.84
2019-05-15T04:23:39.132Z,7.94
2019-05-15T04:26:09.215Z,8.00
2019-05-15T04:28:36.095Z,8.13
2019-05-15T04:31:02.147Z,8.14
2019-05-15T04:33:29.392Z,8.29
2019-05-15T04:35:58.748Z,8.36
2019-05-15T04:38:24.246Z,8.42
2019-05-15T04:40:50.600Z,8.64
2019-05-15T04:43:19.224Z,8.62
2019-05-15T04:45:44.680Z,8.61
2019-05-15T04:48:10.916Z,8.73
2019-05-15T04:50:39.956Z,8.90
2019-05-15T04:53:05.297Z,8.95
2019-05-15T04:55:31.923Z,9.14
2019-05-15T04:57:59.207Z,9.18
2019-05-15T05:00:50.237Z,9.34
2019-05-15T05:03:19.878Z,9.48
2019-05-15T05:05:44.526Z,9.62
2019-05-15T05:08:11.618Z,9.71
2019-05-15T05:10:39.607Z,9.78
2019-05-15T05:13:08.503Z,9.95
2019-05-15T05:15:33.655Z,10.09
2019-05-15T05:17:59.753Z,10.07
2019-05-15T05:20:25.748Z,10.21
2019-05-15T05:22:51.793Z,10.36
2019-05-15T05:25:18.274Z,10.44
2019-05-15T05:27:45.293Z,10.57
2019-05-15T05:30:11.658Z,10.64
2019-05-15T05:32:39.078Z,10.73
2019-05-15T05:35:08.213Z,10.90
2019-05-15T05:37:33.748Z,11.03
2019-05-15T05:39:59.813Z,11.11
2019-05-15T05:42:25.798Z,11.26
2019-05-15T05:44:51.943Z,11.26
2019-05-15T05:47:18.354Z,11.33
2019-05-15T05:49:44.521Z,11.48
2019-05-15T05:52:10.704Z,11.41
2019-05-15T05:54:38.269Z,11.52
2019-05-15T05:57:04.558Z,11.58
2019-05-15T05:59:30.653Z,11.66
2019-05-15T06:01:58.868Z,11.68
2019-05-15T06:04:24.913Z,11.75
2019-05-15T06:07:06.091Z,11.73
2019-05-15T06:09:19.084Z,11.76
2019-05-15T06:11:45.074Z,11.92
2019-05-15T06:14:11.335Z,11.89
2019-05-15T06:16:38.744Z,11.83
2019-05-15T06:19:08.122Z,11.88
2019-05-15T06:21:33.310Z,12.00
2019-05-15T06:24:04.508Z,12.08
2019-05-15T06:26:28.293Z,12.12
2019-05-15T06:28:54.940Z,12.08
2019-05-15T06:31:21.232Z,12.01
2019-05-15T06:33:49.041Z,12.07
2019-05-15T06:36:17.821Z,12.05
2019-05-15T06:38:43.412Z,12.05
2019-05-15T06:41:09.776Z,12.18
2019-05-15T06:43:36.018Z,12.38
2019-05-15T06:46:02.377Z,12.76
2019-05-15T06:48:28.986Z,12.86
2019-05-15T06:50:55.104Z,13.15
2019-05-15T06:53:21.366Z,13.39
2019-05-15T06:55:48.521Z,13.83
2019-05-15T06:58:15.156Z,13.99
2019-05-15T07:00:41.489Z,14.25
2019-05-15T07:03:18.069Z,14.13
2019-05-15T07:05:38.359Z,14.24
2019-05-15T07:08:03.697Z,14.57
2019-05-15T07:10:29.702Z,15.19
2019-05-15T07:12:58.366Z,15.26
2019-05-15T07:15:24.703Z,14.63
2019-05-15T07:17:50.961Z,14.52
2019-05-15T07:20:18.577Z,14.96
2019-05-15T07:22:44.790Z,14.89
2019-05-15T07:25:11.064Z,14.97
2019-05-15T07:27:39.119Z,15.36
2019-05-15T07:30:07.746Z,15.49
2019-05-15T07:32:33.964Z,15.33
2019-05-15T07:35:00.378Z,15.84
2019-05-15T07:37:28.831Z,15.95
2019-05-15T07:39:54.597Z,15.90
2019-05-15T07:42:20.587Z,16.34
2019-05-15T07:44:48.183Z,16.36
2019-05-15T07:47:14.493Z,15.95
2019-05-15T07:49:40.521Z,16.28
2019-05-15T07:52:08.584Z,16.22
2019-05-15T07:54:34.718Z,16.55
2019-05-15T07:57:00.810Z,16.66
2019-05-15T07:59:28.003Z,16.79
2019-05-15T08:01:54.121Z,17.15
2019-05-15T08:04:28.871Z,17.22
2019-05-15T08:06:49.029Z,16.70
2019-05-15T08:09:17.859Z,16.99
2019-05-15T08:11:43.493Z,16.46
2019-05-15T08:14:09.581Z,17.16
2019-05-15T08:16:35.789Z,16.99
2019-05-15T08:19:01.943Z,17.49
2019-05-15T08:21:29.241Z,17.38
2019-05-15T08:23:55.520Z,17.80
2019-05-15T08:26:21.513Z,18.22
2019-05-15T08:28:48.712Z,17.65
2019-05-15T08:31:15.073Z,17.51
2019-05-15T08:33:41.286Z,17.67
2019-05-15T08:36:08.416Z,17.49
2019-05-15T08:38:34.729Z,17.43
2019-05-15T08:41:00.739Z,17.78
2019-05-15T08:43:29.022Z,18.13
2019-05-15T08:45:54.653Z,18.02
2019-05-15T08:48:20.860Z,18.05
2019-05-15T08:50:48.774Z,17.81
2019-05-15T08:53:15.028Z,18.06
2019-05-15T08:55:41.081Z,18.35
2019-05-15T08:58:13.580Z,18.30
2019-05-15T09:00:35.278Z,18.37
2019-05-15T09:03:01.369Z,18.22
2019-05-15T09:05:28.275Z,18.89
2019-05-15T09:07:54.469Z,18.52
2019-05-15T09:10:20.457Z,18.17
2019-05-15T09:12:46.461Z,18.14
2019-05-15T09:15:13.337Z,18.93
2019-05-15T09:17:40.056Z,18.85
2019-05-15T09:20:08.105Z,19.16
2019-05-15T09:22:34.488Z,19.74
2019-05-15T09:25:00.514Z,19.42
2019-05-15T09:27:27.892Z,19.47
2019-05-15T09:29:54.032Z,19.30
2019-05-15T09:32:20.100Z,19.16
2019-05-15T09:34:51.755Z,18.67
2019-05-15T09:37:14.212Z,18.41
2019-05-15T09:39:40.261Z,18.96
2019-05-15T09:42:08.328Z,18.73
2019-05-15T09:44:34.183Z,19.76
2019-05-15T09:47:00.185Z,20.13
2019-05-15T09:49:28.462Z,18.85
2019-05-15T09:51:54.197Z,18.69
2019-05-15T09:54:20.193Z,18.02
2019-05-15T09:56:49.326Z,17.98
2019-05-15T09:59:14.149Z,18.54
2019-05-15T10:01:40.264Z,18.83
2019-05-15T10:04:08.333Z,18.82
2019-05-15T10:06:34.319Z,18.79
2019-05-15T10:09:00.378Z,18.84
2019-05-15T10:11:28.756Z,18.93
2019-05-15T10:13:54.278Z,18.84
2019-05-15T10:16:20.327Z,18.95
2019-05-15T10:18:51.015Z,19.68
2019-05-15T10:21:14.378Z,19.76
2019-05-15T10:23:40.668Z,19.03
2019-05-15T10:26:13.969Z,19.97
2019-05-15T10:28:35.303Z,19.89
2019-05-15T10:31:01.417Z,19.87
2019-05-15T10:33:29.515Z,19.50
2019-05-15T10:35:55.304Z,20.27
2019-05-15T10:38:21.381Z,20.62
2019-05-15T10:41:00.123Z,20.06
2019-05-15T10:43:15.313Z,20.34
2019-05-15T10:45:42.614Z,20.98
2019-05-15T10:48:09.607Z,20.71
2019-05-15T10:50:35.688Z,21.11
2019-05-15T10:53:01.945Z,21.59
2019-05-15T10:55:28.905Z,20.60
2019-05-15T10:57:55.070Z,20.01
2019-05-15T11:00:21.397Z,20.42
2019-05-15T11:02:48.922Z,20.93
2019-05-15T11:05:17.882Z,20.40
2019-05-15T11:07:43.758Z,19.38
2019-05-15T11:10:10.492Z,19.84
2019-05-15T11:12:37.331Z,20.03
2019-05-15T11:15:11.037Z,20.91
2019-05-15T11:17:34.631Z,21.09
2019-05-15T11:20:00.736Z,21.38
2019-05-15T11:22:29.643Z,21.02
2019-05-15T11:24:55.037Z,20.06
2019-05-15T11:27:21.036Z,20.19
2019-05-15T11:29:47.795Z,20.26
2019-05-15T11:32:14.355Z,20.21
2019-05-15T11:34:40.365Z,19.52
2019-05-15T11:37:06.600Z,19.62
2019-05-15T11:39:32.673Z,19.91
2019-05-15T11:41:58.873Z,20.55
2019-05-15T11:44:24.988Z,20.73
2019-05-15T11:46:50.985Z,20.63
2019-05-15T11:49:18.259Z,20.63
2019-05-15T11:51:44.478Z,20.51
2019-05-15T11:54:10.510Z,20.69
2019-05-15T11:56:39.262Z,20.36
2019-05-15T11:59:05.840Z,20.10
2019-05-15T12:01:31.903Z,20.33
2019-05-15T12:03:58.720Z,20.64
2019-05-15T12:06:24.983Z,20.42
2019-05-15T12:08:51.212Z,20.22
2019-05-15T12:11:31.103Z,20.04
2019-05-15T12:13:46.041Z,20.04
2019-05-15T12:16:12.070Z,20.37
2019-05-15T12:18:39.007Z,20.60
2019-05-15T12:21:05.182Z,20.65
2019-05-15T12:23:31.185Z,20.36
2019-05-15T12:25:59.725Z,20.70
2019-05-15T12:28:25.142Z,20.12
2019-05-15T12:30:51.163Z,20.12
2019-05-15T12:33:18.336Z,20.15
2019-05-15T12:35:44.639Z,19.97
2019-05-15T12:38:10.653Z,19.38
2019-05-15T13:00:20.297Z,18.61
2019-05-15T13:02:46.360Z,19.06
2019-05-15T13:05:12.702Z,19.27
2019-05-15T13:07:38.696Z,19.53
2019-05-15T13:10:05.500Z,19.69
2019-05-15T13:12:31.541Z,19.71
2019-05-15T13:14:59.046Z,19.16
2019-05-15T13:17:25.294Z,18.63
2019-05-15T13:19:51.372Z,18.92
2019-05-15T13:22:20.614Z,19.15
2019-05-15T13:24:45.318Z,19.31
2019-05-15T13:27:11.611Z,19.54
2019-05-15T13:29:37.673Z,19.26
2019-05-15T13:32:03.670Z,19.57
2019-05-15T13:34:30.905Z,19.15
2019-05-15T13:36:59.263Z,19.59
2019-05-15T13:39:25.017Z,19.66
2019-05-15T13:41:51.109Z,19.51
2019-05-15T13:44:18.763Z,19.33
2019-05-15T13:46:44.971Z,19.36
2019-05-15T13:49:10.996Z,19.48
2019-05-15T13:51:38.374Z,18.99
2019-05-15T13:54:04.683Z,18.11
2019-05-15T13:56:30.684Z,18.15
2019-05-15T13:58:58.715Z,18.70
2019-05-15T14:01:24.597Z,19.11
2019-05-15T14:03:50.608Z,18.94
2019-05-15T14:06:16.635Z,18.51
2019-05-15T14:08:43.364Z,18.34
2019-05-15T14:11:09.552Z,17.89
2019-05-15T14:13:35.657Z,18.65
2019-05-15T14:16:01.690Z,18.58
2019-05-15T14:18:28.589Z,18.29
2019-05-15T14:20:54.943Z,18.37
2019-05-15T14:23:20.955Z,18.33
2019-05-15T14:25:48.250Z,18.36
2019-05-15T14:28:15.478Z,18.63
2019-05-15T14:30:41.616Z,18.70
2019-05-15T14:33:08.576Z,18.67
2019-05-15T14:35:34.981Z,19.17
2019-05-15T14:38:05.887Z,19.04
2019-05-15T14:40:29.135Z,18.89
2019-05-15T14:42:55.120Z,18.79
2019-05-15T14:45:21.160Z,18.34
2019-05-15T14:47:49.195Z,17.80
2019-05-15T14:50:15.252Z,17.68
2019-05-15T14:52:41.289Z,17.84
2019-05-15T14:55:08.123Z,17.76
2019-05-15T14:57:38.894Z,17.82
2019-05-15T15:00:04.638Z,17.81
2019-05-15T15:02:30.643Z,17.45
2019-05-15T15:04:59.237Z,17.55
2019-05-15T15:07:24.577Z,17.45
2019-05-15T15:09:50.639Z,17.06
2019-05-15T15:12:18.879Z,17.23
2019-05-15T15:14:44.904Z,16.84
2019-05-15T15:17:10.932Z,16.72
2019-05-15T15:19:38.892Z,16.91
2019-05-15T15:22:04.982Z,16.89
2019-05-15T15:24:31.064Z,16.71
2019-05-15T15:26:58.876Z,16.85
2019-05-15T15:29:25.095Z,17.00
2019-05-15T15:31:51.305Z,16.54
2019-05-15T15:34:19.614Z,16.70
2019-05-15T15:36:45.705Z,16.60
2019-05-15T15:39:11.695Z,16.82
2019-05-15T15:41:38.993Z,16.85
2019-05-15T15:44:08.190Z,16.74
2019-05-15T15:46:33.490Z,16.32
2019-05-15T15:48:59.513Z,16.43
2019-05-15T15:51:25.793Z,16.50
2019-05-15T15:53:52.271Z,16.62
2019-05-15T15:56:18.632Z,16.73
2019-05-15T15:58:44.881Z,16.56
2019-05-15T16:01:11.030Z,16.04
2019-05-15T16:03:38.019Z,16.29
2019-05-15T16:06:04.277Z,16.06
2019-05-15T16:08:30.264Z,15.88
2019-05-15T16:10:58.812Z,16.07
2019-05-15T16:13:24.408Z,16.26
2019-05-15T16:15:50.480Z,16.11
2019-05-15T16:18:18.300Z,15.78
2019-05-15T16:20:44.536Z,15.98
2019-05-15T16:23:10.562Z,15.62
2019-05-15T16:25:38.448Z,15.46
2019-05-15T16:28:04.480Z,15.41
2019-05-15T16:30:31.634Z,15.34
2019-05-15T16:32:58.566Z,15.36
2019-05-15T16:35:24.683Z,15.46
2019-05-15T16:37:50.918Z,15.55
2019-05-15T16:40:18.395Z,15.60
2019-05-15T16:42:44.654Z,15.54
2019-05-15T16:45:10.825Z,15.38
2019-05-15T16:47:38.859Z,15.18
2019-05-15T16:50:06.200Z,15.13
2019-05-15T16:52:32.372Z,15.10
2019-05-15T16:54:58.556Z,15.12
2019-05-15T16:57:24.586Z,14.94
2019-05-15T16:59:50.709Z,14.79
2019-05-15T17:02:18.897Z,14.68
2019-05-15T17:04:44.712Z,14.74
2019-05-15T17:07:10.707Z,14.63
2019-05-15T17:09:38.735Z,14.75
2019-05-15T17:12:04.754Z,14.78
2019-05-15T17:14:30.785Z,14.62
2019-05-15T17:16:58.625Z,14.58
2019-05-15T17:19:24.849Z,14.71
2019-05-15T17:21:51.207Z,14.81
2019-05-15T17:24:17.470Z,14.68
2019-05-15T17:26:43.846Z,14.98
2019-05-15T17:29:09.966Z,14.99
2019-05-15T17:31:37.967Z,15.25
2019-05-15T17:34:04.176Z,15.11
2019-05-15T17:36:32.062Z,15.24
2019-05-15T17:38:58.179Z,15.40
2019-05-15T17:41:24.268Z,15.23
2019-05-15T17:43:50.437Z,15.40
2019-05-15T17:46:16.482Z,15.29
2019-05-15T17:48:42.580Z,15.16
2019-05-15T17:51:09.286Z,15.23
2019-05-15T17:53:35.576Z,14.87
2019-05-15T17:56:01.604Z,15.09
2019-05-15T17:58:28.885Z,15.26
2019-05-15T18:00:55.060Z,15.24
2019-05-15T18:03:21.086Z,15.16
2019-05-15T18:05:48.444Z,15.11
2019-05-15T18:08:14.556Z,14.69
2019-05-15T18:10:40.596Z,14.70
2019-05-15T18:13:08.739Z,14.66
2019-05-15T18:15:34.666Z,14.81
2019-05-15T18:18:00.654Z,15.14
2019-05-15T18:20:29.884Z,14.93
2019-05-15T18:22:58.829Z,14.98
2019-05-15T18:25:24.219Z,14.89
2019-05-15T18:27:50.931Z,15.07
2019-05-15T18:30:18.340Z,14.52
2019-05-15T18:32:44.797Z,14.66
2019-05-15T18:35:11.315Z,14.34
2019-05-15T18:37:39.310Z,14.17
2019-05-15T18:40:09.699Z,13.99
2019-05-15T18:42:34.347Z,13.97
2019-05-15T18:45:00.901Z,14.15
2019-05-15T18:47:27.996Z,14.00
2019-05-15T18:50:05.933Z,13.80
2019-05-15T18:52:22.104Z,14.09
2019-05-15T18:54:48.448Z,14.18
2019-05-15T18:57:14.581Z,14.22
2019-05-15T18:59:40.681Z,14.10
2019-05-15T19:02:08.054Z,14.03
2019-05-15T19:04:34.180Z,13.63
2019-05-15T19:07:00.282Z,13.66
2019-05-15T19:09:28.143Z,13.61
2019-05-15T19:11:54.235Z,13.30
2019-05-15T19:14:20.360Z,13.47
2019-05-15T19:16:48.475Z,13.46
2019-05-15T19:19:14.557Z,13.61
2019-05-15T19:21:40.699Z,13.63
2019-05-15T19:24:07.759Z,13.64
2019-05-15T19:26:33.964Z,13.61
2019-05-15T19:29:00.041Z,13.12
2019-05-15T19:31:27.946Z,13.31
2019-05-15T19:33:53.996Z,13.50
2019-05-15T19:36:20.066Z,13.49
2019-05-15T19:38:47.953Z,13.52
2019-05-15T19:41:14.273Z,13.44
2019-05-15T19:43:40.328Z,13.45
2019-05-15T19:46:07.994Z,13.59
2019-05-15T19:48:34.309Z,13.33
2019-05-15T19:51:00.361Z,13.34
2019-05-15T19:53:28.293Z,13.31
2019-05-15T19:55:54.236Z,13.20
2019-05-15T19:58:20.265Z,13.09
2019-05-15T20:00:48.125Z,13.05
2019-05-15T20:03:14.532Z,13.11
2019-05-15T20:05:40.546Z,13.11
2019-05-15T20:08:07.802Z,13.03
2019-05-15T20:10:34.060Z,13.01
2019-05-15T20:13:00.095Z,12.82
2019-05-15T20:15:28.355Z,12.73
2019-05-15T20:17:54.107Z,12.81
2019-05-15T20:20:20.139Z,12.79
2019-05-15T20:22:46.471Z,12.67
2019-05-15T20:25:12.895Z,12.73
2019-05-15T20:27:39.365Z,12.77
2019-05-15T20:30:08.452Z,12.57
2019-05-15T20:32:34.634Z,12.76
2019-05-15T20:35:01.054Z,12.69
2019-05-15T20:37:28.872Z,12.74
2019-05-15T20:39:55.045Z,12.61
2019-05-15T20:42:21.036Z,12.67
2019-05-15T20:44:48.548Z,12.51
2019-05-15T20:47:14.866Z,12.47
2019-05-15T20:49:40.854Z,12.49
2019-05-15T20:52:06.967Z,12.65
2019-05-15T20:54:33.156Z,12.61
2019-05-15T20:56:59.160Z,12.58
2019-05-15T20:59:25.218Z,12.61
2019-05-15T21:01:51.315Z,12.58
2019-05-15T21:04:22.604Z,12.55
2019-05-15T21:06:45.301Z,12.43
2019-05-15T21:09:11.478Z,12.45
2019-05-15T21:11:39.691Z,12.31
2019-05-15T21:14:05.750Z,12.31
2019-05-15T21:16:31.758Z,12.17
2019-05-15T21:19:00.242Z,12.12
2019-05-15T21:21:28.108Z,12.16
2019-05-15T21:23:53.701Z,12.07
2019-05-15T21:26:19.767Z,11.98
2019-05-15T21:28:45.963Z,12.11
2019-05-15T21:31:13.896Z,12.15
2019-05-15T21:33:39.884Z,12.05
2019-05-15T21:36:07.851Z,12.12
2019-05-15T21:38:33.928Z,11.94
2019-05-15T21:41:00.034Z,11.75
2019-05-15T21:43:26.359Z,11.77
2019-05-15T21:45:52.370Z,11.64
2019-05-15T21:48:18.542Z,11.66
2019-05-15T21:50:44.617Z,11.49
2019-05-15T21:53:10.937Z,11.73
2019-05-15T21:55:38.789Z,11.86
2019-05-15T21:58:04.838Z,11.86
2019-05-15T22:00:38.282Z,11.81
2019-05-15T22:03:04.863Z,11.85
2019-05-15T22:05:31.416Z,11.74
2019-05-15T22:07:58.753Z,11.69
2019-05-15T22:10:25.313Z,11.66
2019-05-15T22:12:51.940Z,11.84
2019-05-15T22:15:18.957Z,11.81
2019-05-15T22:17:45.729Z,11.60
2019-05-15T22:20:12.057Z,11.62
2019-05-15T22:22:38.242Z,11.75
2019-05-15T22:25:05.021Z,11.71
2019-05-15T22:27:31.068Z,11.70
2019-05-15T22:29:58.769Z,11.62
2019-05-15T22:32:25.419Z,11.78
2019-05-15T22:35:05.683Z,11.79
2019-05-15T22:37:21.657Z,11.94
2019-05-15T22:39:48.589Z,12.35
2019-05-15T22:42:18.113Z,12.71
2019-05-15T22:44:43.261Z,12.58
2019-05-15T22:47:09.605Z,11.98
2019-05-15T22:49:37.916Z,11.87
2019-05-15T22:52:03.657Z,11.86
2019-05-15T22:54:29.651Z,11.88
2019-05-15T22:56:57.678Z,11.73
2019-05-15T22:59:24.189Z,11.62
2019-05-15T23:01:50.204Z,11.66
2019-05-15T23:04:18.120Z,11.77
2019-05-15T23:06:44.321Z,11.73
2019-05-15T23:09:10.389Z,11.74
2019-05-15T23:11:39.063Z,11.77
2019-05-15T23:14:04.309Z,11.77
2019-05-15T23:16:30.276Z,11.68
2019-05-15T23:18:58.664Z,11.56
2019-05-15T23:21:24.537Z,11.74
2019-05-15T23:23:50.624Z,11.71
2019-05-15T23:26:16.760Z,11.77
2019-05-15T23:28:48.084Z,11.59
2019-05-15T23:31:14.800Z,12.06
2019-05-15T23:33:40.948Z,12.16
2019-05-15T23:36:06.960Z,11.99
2019-05-15T23:38:32.977Z,11.73
2019-05-15T23:40:59.111Z,11.60
2019-05-15T23:43:25.185Z,11.77
2019-05-15T23:45:51.220Z,11.89
2019-05-15T23:48:17.246Z,11.88
2019-05-15T23:50:43.302Z,11.71
2019-05-15T23:53:09.381Z,11.61
2019-05-15T23:55:35.994Z,11.60
2019-05-15T23:58:02.059Z,11.64
